sensor_id;sensor_type;location;lat;lon;timestamp;pressure;altitude;pressure_sealevel;temperature;humidity
58385;BME280;44185;47.844;8.966;2023-05-20T00:01:03;96133.38;;;11.17;93.05
58385;BME280;44185;47.844;8.966;2023-05-20T00:03:29;96140.75;;;11.14;92.69
58385;BME280;44185;47.844;8.966;2023-05-20T00:05:56;96131.84;;;11.15;93.04
58385;BME280;44185;47.844;8.966;2023-05-20T00:08:21;96134.19;;;11.18;92.21
58385;BME280;44185;47.844;8.966;2023-05-20T00:10:46;96133.38;;;11.17;93.05
58385;BME280;44185;47.844;8.966;2023-05-20T00:13:12;96128.09;;;11.17;92.87
58385;BME280;44185;47.844;8.966;2023-05-20T00:15:37;96122.91;;;11.16;93.10
58385;BME280;44185;47.844;8.966;2023-05-20T00:18:03;96121.25;;;11.15;92.51
58385;BME280;44185;47.844;8.966;2023-05-20T00:20:29;96122.22;;;11.14;92.41
58385;BME280;44185;47.844;8.966;2023-05-20T00:22:56;96117.34;;;11.19;92.29
58385;BME280;44185;47.844;8.966;2023-05-20T00:25:21;96120.13;;;11.17;92.79
58385;BME280;44185;47.844;8.966;2023-05-20T00:27:47;96121.09;;;11.16;92.95
58385;BME280;44185;47.844;8.966;2023-05-20T00:30:12;96105.91;;;11.18;92.73
58385;BME280;44185;47.844;8.966;2023-05-20T00:32:38;96107.16;;;11.14;92.22
58385;BME280;44185;47.844;8.966;2023-05-20T00:35:04;96104.25;;;11.17;92.23
58385;BME280;44185;47.844;8.966;2023-05-20T00:37:30;96098.38;;;11.14;92.75
58385;BME280;44185;47.844;8.966;2023-05-20T00:39:57;96093.34;;;11.10;93.17
58385;BME280;44185;47.844;8.966;2023-05-20T00:42:23;96100.59;;;11.08;93.01
58385;BME280;44185;47.844;8.966;2023-05-20T00:44:49;96099.91;;;11.06;93.30
58385;BME280;44185;47.844;8.966;2023-05-20T00:47:16;96102.25;;;11.09;93.40
58385;BME280;44185;47.844;8.966;2023-05-20T00:49:43;96105.06;;;11.08;93.53
58385;BME280;44185;47.844;8.966;2023-05-20T00:52:09;96090.13;;;11.07;93.57
58385;BME280;44185;47.844;8.966;2023-05-20T00:54:35;96092.66;;;11.08;93.99
58385;BME280;44185;47.844;8.966;2023-05-20T00:57:02;96097.97;;;11.08;93.96
58385;BME280;44185;47.844;8.966;2023-05-20T00:59:29;96092.25;;;11.13;94.22
58385;BME280;44185;47.844;8.966;2023-05-20T01:01:56;96102.56;;;11.16;93.99
58385;BME280;44185;47.844;8.966;2023-05-20T01:04:21;96101.44;;;11.19;93.86
58385;BME280;44185;47.844;8.966;2023-05-20T01:06:47;96100.47;;;11.20;93.84
58385;BME280;44185;47.844;8.966;2023-05-20T01:09:12;96101.28;;;11.20;93.92
58385;BME280;44185;47.844;8.966;2023-05-20T01:11:43;96092.22;;;11.23;93.58
58385;BME280;44185;47.844;8.966;2023-05-20T01:14:15;96096.13;;;11.29;93.73
58385;BME280;44185;47.844;8.966;2023-05-20T01:16:43;96097.25;;;11.26;94.35
58385;BME280;44185;47.844;8.966;2023-05-20T01:19:19;96094.47;;;11.28;94.56
58385;BME280;44185;47.844;8.966;2023-05-20T01:21:47;96094.31;;;11.29;94.51
58385;BME280;44185;47.844;8.966;2023-05-20T01:24:15;96091.84;;;11.28;94.82
58385;BME280;44185;47.844;8.966;2023-05-20T01:26:40;96092.78;;;11.27;96.39
58385;BME280;44185;47.844;8.966;2023-05-20T01:29:06;96089.19;;;11.28;96.87
58385;BME280;44185;47.844;8.966;2023-05-20T01:31:32;96089.19;;;11.28;97.34
58385;BME280;44185;47.844;8.966;2023-05-20T01:34:01;96088.78;;;11.22;96.35
58385;BME280;44185;47.844;8.966;2023-05-20T01:36:27;96091.53;;;11.21;96.40
58385;BME280;44185;47.844;8.966;2023-05-20T01:38:53;96088.47;;;11.16;97.21
58385;BME280;44185;47.844;8.966;2023-05-20T01:41:22;96086.81;;;11.05;97.95
58385;BME280;44185;47.844;8.966;2023-05-20T01:43:49;96091.81;;;11.08;98.88
58385;BME280;44185;47.844;8.966;2023-05-20T01:46:15;96088.59;;;11.04;99.74
58385;BME280;44185;47.844;8.966;2023-05-20T01:48:40;96093.22;;;10.92;99.08
58385;BME280;44185;47.844;8.966;2023-05-20T01:51:05;96086.22;;;10.91;99.51
58385;BME280;44185;47.844;8.966;2023-05-20T01:53:31;96087.75;;;10.94;99.37
58385;BME280;44185;47.844;8.966;2023-05-20T01:55:56;96076.47;;;10.92;100.00
58385;BME280;44185;47.844;8.966;2023-05-20T01:58:23;96079.13;;;10.92;100.00
58385;BME280;44185;47.844;8.966;2023-05-20T02:00:49;96078.59;;;10.88;100.00
58385;BME280;44185;47.844;8.966;2023-05-20T02:03:15;96072.31;;;10.79;100.00
58385;BME280;44185;47.844;8.966;2023-05-20T02:05:40;96082.72;;;10.71;100.00
58385;BME280;44185;47.844;8.966;2023-05-20T02:08:05;96076.06;;;10.66;100.00
58385;BME280;44185;47.844;8.966;2023-05-20T02:10:31;96080.91;;;10.61;100.00
58385;BME280;44185;47.844;8.966;2023-05-20T02:12:56;96081.88;;;10.60;100.00
58385;BME280;44185;47.844;8.966;2023-05-20T02:15:23;96088.03;;;10.61;100.00
58385;BME280;44185;47.844;8.966;2023-05-20T02:17:49;96076.84;;;10.57;100.00
58385;BME280;44185;47.844;8.966;2023-05-20T02:20:15;96075.22;;;10.56;100.00
58385;BME280;44185;47.844;8.966;2023-05-20T02:22:40;96071.25;;;10.50;100.00
58385;BME280;44185;47.844;8.966;2023-05-20T02:25:06;96062.91;;;10.45;100.00
58385;BME280;44185;47.844;8.966;2023-05-20T02:27:32;96065.78;;;10.32;100.00
58385;BME280;44185;47.844;8.966;2023-05-20T02:29:57;96065.88;;;10.20;100.00
58385;BME280;44185;47.844;8.966;2023-05-20T02:32:24;96066.97;;;10.18;100.00
58385;BME280;44185;47.844;8.966;2023-05-20T02:34:50;96066.38;;;10.04;100.00
58385;BME280;44185;47.844;8.966;2023-05-20T02:37:15;96067.75;;;9.98;100.00
58385;BME280;44185;47.844;8.966;2023-05-20T02:39:40;96073.44;;;9.94;100.00
58385;BME280;44185;47.844;8.966;2023-05-20T02:42:06;96069.00;;;9.94;100.00
58385;BME280;44185;47.844;8.966;2023-05-20T02:44:31;96071.13;;;10.00;100.00
58385;BME280;44185;47.844;8.966;2023-05-20T02:46:57;96069.19;;;10.12;100.00
58385;BME280;44185;47.844;8.966;2023-05-20T02:49:23;96068.94;;;10.16;100.00
58385;BME280;44185;47.844;8.966;2023-05-20T02:51:49;96069.44;;;9.99;100.00
58385;BME280;44185;47.844;8.966;2023-05-20T02:54:15;96070.97;;;10.02;100.00
58385;BME280;44185;47.844;8.966;2023-05-20T02:56:40;96058.19;;;10.07;100.00
58385;BME280;44185;47.844;8.966;2023-05-20T02:59:05;96061.50;;;9.99;100.00
58385;BME280;44185;47.844;8.966;2023-05-20T03:01:31;96049.38;;;9.97;100.00
58385;BME280;44185;47.844;8.966;2023-05-20T03:03:56;96047.19;;;10.02;100.00
58385;BME280;44185;47.844;8.966;2023-05-20T03:06:23;96047.19;;;10.12;100.00
58385;BME280;44185;47.844;8.966;2023-05-20T03:08:48;96059.06;;;10.28;100.00
58385;BME280;44185;47.844;8.966;2023-05-20T03:11:14;96055.91;;;10.44;100.00
58385;BME280;44185;47.844;8.966;2023-05-20T03:13:39;96053.31;;;10.54;100.00
58385;BME280;44185;47.844;8.966;2023-05-20T03:16:05;96054.31;;;10.53;100.00
58385;BME280;44185;47.844;8.966;2023-05-20T03:18:30;96058.22;;;10.59;100.00
58385;BME280;44185;47.844;8.966;2023-05-20T03:20:56;96060.28;;;10.65;100.00
58385;BME280;44185;47.844;8.966;2023-05-20T03:23:23;96056.28;;;10.71;100.00
58385;BME280;44185;47.844;8.966;2023-05-20T03:25:49;96058.66;;;10.74;100.00
58385;BME280;44185;47.844;8.966;2023-05-20T03:28:15;96058.38;;;10.77;100.00
58385;BME280;44185;47.844;8.966;2023-05-20T03:30:40;96043.19;;;10.79;100.00
58385;BME280;44185;47.844;8.966;2023-05-20T03:33:05;96059.63;;;10.83;100.00
58385;BME280;44185;47.844;8.966;2023-05-20T03:35:31;96048.34;;;10.81;100.00
58385;BME280;44185;47.844;8.966;2023-05-20T03:37:56;96055.31;;;10.82;100.00
58385;BME280;44185;47.844;8.966;2023-05-20T03:40:23;96056.28;;;10.81;100.00
58385;BME280;44185;47.844;8.966;2023-05-20T03:42:49;96051.81;;;10.81;100.00
58385;BME280;44185;47.844;8.966;2023-05-20T03:45:15;96049.75;;;10.85;100.00
58385;BME280;44185;47.844;8.966;2023-05-20T03:47:40;96038.72;;;10.89;100.00
58385;BME280;44185;47.844;8.966;2023-05-20T03:50:06;96049.75;;;10.95;100.00
58385;BME280;44185;47.844;8.966;2023-05-20T03:52:32;96039.84;;;10.97;100.00
58385;BME280;44185;47.844;8.966;2023-05-20T03:54:57;96052.81;;;11.00;100.00
58385;BME280;44185;47.844;8.966;2023-05-20T03:57:24;96044.72;;;11.01;100.00
58385;BME280;44185;47.844;8.966;2023-05-20T03:59:49;96044.84;;;11.00;100.00
58385;BME280;44185;47.844;8.966;2023-05-20T04:02:15;96042.06;;;11.01;100.00
58385;BME280;44185;47.844;8.966;2023-05-20T04:04:40;96046.81;;;10.98;100.00
58385;BME280;44185;47.844;8.966;2023-05-20T04:07:06;96047.78;;;10.97;100.00
58385;BME280;44185;47.844;8.966;2023-05-20T04:09:31;96049.88;;;11.03;100.00
58385;BME280;44185;47.844;8.966;2023-05-20T04:11:57;96050.56;;;11.05;100.00
58385;BME280;44185;47.844;8.966;2023-05-20T04:14:23;96057.41;;;11.08;100.00
58385;BME280;44185;47.844;8.966;2023-05-20T04:16:49;96042.06;;;11.11;100.00
58385;BME280;44185;47.844;8.966;2023-05-20T04:19:15;96041.09;;;11.12;100.00
58385;BME280;44185;47.844;8.966;2023-05-20T04:21:41;96051.41;;;11.16;100.00
58385;BME280;44185;47.844;8.966;2023-05-20T04:24:07;96050.84;;;11.22;100.00
58385;BME280;44185;47.844;8.966;2023-05-20T04:26:32;96052.38;;;11.25;100.00
58385;BME280;44185;47.844;8.966;2023-05-20T04:28:58;96056.41;;;11.29;100.00
58385;BME280;44185;47.844;8.966;2023-05-20T04:31:24;96062.69;;;11.28;100.00
58385;BME280;44185;47.844;8.966;2023-05-20T04:33:50;96064.34;;;11.29;100.00
58385;BME280;44185;47.844;8.966;2023-05-20T04:36:15;96065.19;;;11.29;100.00
58385;BME280;44185;47.844;8.966;2023-05-20T04:38:41;96068.69;;;11.30;100.00
58385;BME280;44185;47.844;8.966;2023-05-20T04:41:06;96070.50;;;11.29;100.00
58385;BME280;44185;47.844;8.966;2023-05-20T04:43:31;96066.56;;;11.33;100.00
58385;BME280;44185;47.844;8.966;2023-05-20T04:45:57;96069.53;;;11.30;100.00
58385;BME280;44185;47.844;8.966;2023-05-20T04:48:24;96067.41;;;11.34;100.00
58385;BME280;44185;47.844;8.966;2023-05-20T04:50:50;96056.53;;;11.37;100.00
58385;BME280;44185;47.844;8.966;2023-05-20T04:53:16;96058.91;;;11.40;100.00
58385;BME280;44185;47.844;8.966;2023-05-20T04:55:41;96050.81;;;11.42;100.00
58385;BME280;44185;47.844;8.966;2023-05-20T04:58:06;96049.16;;;11.41;100.00
58385;BME280;44185;47.844;8.966;2023-05-20T05:00:32;96048.03;;;11.43;100.00
58385;BME280;44185;47.844;8.966;2023-05-20T05:02:58;96041.59;;;11.46;100.00
58385;BME280;44185;47.844;8.966;2023-05-20T05:05:25;96045.63;;;11.50;100.00
58385;BME280;44185;47.844;8.966;2023-05-20T05:07:50;96036.84;;;11.50;100.00
58385;BME280;44185;47.844;8.966;2023-05-20T05:10:15;96038.69;;;11.49;100.00
58385;BME280;44185;47.844;8.966;2023-05-20T05:12:41;96033.91;;;11.53;100.00
58385;BME280;44185;47.844;8.966;2023-05-20T05:15:07;96031.13;;;11.54;100.00
58385;BME280;44185;47.844;8.966;2023-05-20T05:17:33;96028.03;;;11.59;100.00
58385;BME280;44185;47.844;8.966;2023-05-20T05:19:58;96032.78;;;11.55;100.00
58385;BME280;44185;47.844;8.966;2023-05-20T05:22:25;96042.13;;;11.60;100.00
58385;BME280;44185;47.844;8.966;2023-05-20T05:24:50;96044.91;;;11.58;100.00
58385;BME280;44185;47.844;8.966;2023-05-20T05:27:16;96040.19;;;11.62;100.00
58385;BME280;44185;47.844;8.966;2023-05-20T05:29:41;96042.81;;;11.62;100.00
58385;BME280;44185;47.844;8.966;2023-05-20T05:32:07;96042.53;;;11.65;100.00
58385;BME280;44185;47.844;8.966;2023-05-20T05:34:32;96039.34;;;11.61;100.00
58385;BME280;44185;47.844;8.966;2023-05-20T05:36:57;96041.69;;;11.64;100.00
58385;BME280;44185;47.844;8.966;2023-05-20T05:39:24;96038.88;;;11.66;100.00
58385;BME280;44185;47.844;8.966;2023-05-20T05:41:50;96037.47;;;11.72;100.00
58385;BME280;44185;47.844;8.966;2023-05-20T05:44:15;96042.53;;;11.65;100.00
58385;BME280;44185;47.844;8.966;2023-05-20T05:46:40;96044.88;;;11.68;100.00
58385;BME280;44185;47.844;8.966;2023-05-20T05:49:06;96045.03;;;11.66;100.00
58385;BME280;44185;47.844;8.966;2023-05-20T05:51:31;96047.00;;;11.64;100.00
58385;BME280;44185;47.844;8.966;2023-05-20T05:53:57;96047.84;;;11.65;100.00
58385;BME280;44185;47.844;8.966;2023-05-20T05:56:23;96042.38;;;11.66;100.00
58385;BME280;44185;47.844;8.966;2023-05-20T05:58:49;96044.75;;;11.70;100.00
58385;BME280;44185;47.844;8.966;2023-05-20T06:01:14;96045.00;;;11.76;100.00
58385;BME280;44185;47.844;8.966;2023-05-20T06:03:40;96040.97;;;11.72;100.00
58385;BME280;44185;47.844;8.966;2023-05-20T06:06:05;96038.72;;;11.77;100.00
58385;BME280;44185;47.844;8.966;2023-05-20T06:08:31;96033.81;;;11.83;100.00
58385;BME280;44185;47.844;8.966;2023-05-20T06:10:56;96031.00;;;11.84;100.00
58385;BME280;44185;47.844;8.966;2023-05-20T06:13:23;96033.38;;;11.87;100.00
58385;BME280;44185;47.844;8.966;2023-05-20T06:15:49;96029.59;;;11.90;100.00
58385;BME280;44185;47.844;8.966;2023-05-20T06:18:15;96032.94;;;11.92;100.00
58385;BME280;44185;47.844;8.966;2023-05-20T06:20:40;96032.75;;;12.04;100.00
58385;BME280;44185;47.844;8.966;2023-05-20T06:23:05;96036.78;;;12.08;100.00
58385;BME280;44185;47.844;8.966;2023-05-20T06:25:31;96030.00;;;11.95;100.00
58385;BME280;44185;47.844;8.966;2023-05-20T06:27:56;96041.44;;;11.96;100.00
58385;BME280;44185;47.844;8.966;2023-05-20T06:30:23;96042.41;;;12.05;100.00
58385;BME280;44185;47.844;8.966;2023-05-20T06:32:49;96037.22;;;12.03;100.00
58385;BME280;44185;47.844;8.966;2023-05-20T06:35:15;96032.19;;;12.10;100.00
58385;BME280;44185;47.844;8.966;2023-05-20T06:37:40;96024.78;;;12.14;100.00
58385;BME280;44185;47.844;8.966;2023-05-20T06:40:07;96021.84;;;12.17;100.00
58385;BME280;44185;47.844;8.966;2023-05-20T06:42:32;96023.34;;;12.19;100.00
58385;BME280;44185;47.844;8.966;2023-05-20T06:44:58;96014.94;;;12.24;100.00
58385;BME280;44185;47.844;8.966;2023-05-20T06:47:24;96009.34;;;12.27;100.00
58385;BME280;44185;47.844;8.966;2023-05-20T06:49:50;96007.75;;;12.34;100.00
58385;BME280;44185;47.844;8.966;2023-05-20T06:52:15;96011.41;;;12.33;100.00
58385;BME280;44185;47.844;8.966;2023-05-20T06:54:41;96008.47;;;12.37;100.00
58385;BME280;44185;47.844;8.966;2023-05-20T06:57:07;96003.94;;;12.47;100.00
58385;BME280;44185;47.844;8.966;2023-05-20T06:59:33;96006.81;;;12.54;100.00
58385;BME280;44185;47.844;8.966;2023-05-20T07:01:58;96010.59;;;12.51;100.00
58385;BME280;44185;47.844;8.966;2023-05-20T07:04:25;96014.19;;;12.60;100.00
58385;BME280;44185;47.844;8.966;2023-05-20T07:06:51;96006.06;;;12.62;100.00
58385;BME280;44185;47.844;8.966;2023-05-20T07:09:16;96004.63;;;12.49;100.00
58385;BME280;44185;47.844;8.966;2023-05-20T07:11:41;96004.63;;;12.49;100.00
58385;BME280;44185;47.844;8.966;2023-05-20T07:14:07;96009.47;;;12.54;100.00
58385;BME280;44185;47.844;8.966;2023-05-20T07:16:32;96013.47;;;12.58;100.00
58385;BME280;44185;47.844;8.966;2023-05-20T07:18:58;96018.41;;;12.53;100.00
58385;BME280;44185;47.844;8.966;2023-05-20T07:21:24;96014.31;;;12.40;100.00
58385;BME280;44185;47.844;8.966;2023-05-20T07:23:50;96003.78;;;12.49;100.00
58385;BME280;44185;47.844;8.966;2023-05-20T07:26:15;96004.00;;;12.55;100.00
58385;BME280;44185;47.844;8.966;2023-05-20T07:28:41;96003.03;;;12.56;100.00
58385;BME280;44185;47.844;8.966;2023-05-20T07:31:06;96005.47;;;12.50;100.00
58385;BME280;44185;47.844;8.966;2023-05-20T07:33:32;96006.53;;;12.57;100.00
58385;BME280;44185;47.844;8.966;2023-05-20T07:35:57;96000.53;;;12.55;100.00
58385;BME280;44185;47.844;8.966;2023-05-20T07:38:24;96002.84;;;12.58;100.00
58385;BME280;44185;47.844;8.966;2023-05-20T07:40:49;96010.06;;;12.48;100.00
58385;BME280;44185;47.844;8.966;2023-05-20T07:43:15;96006.66;;;12.55;100.00
58385;BME280;44185;47.844;8.966;2023-05-20T07:45:41;96006.44;;;12.67;100.00
58385;BME280;44185;47.844;8.966;2023-05-20T07:48:06;96009.25;;;12.65;100.00
58385;BME280;44185;47.844;8.966;2023-05-20T07:50:32;96005.38;;;12.41;100.00
58385;BME280;44185;47.844;8.966;2023-05-20T07:52:57;96006.97;;;12.52;100.00
58385;BME280;44185;47.844;8.966;2023-05-20T07:55:24;96008.78;;;12.70;100.00
58385;BME280;44185;47.844;8.966;2023-05-20T07:57:50;96008.97;;;12.68;100.00
58385;BME280;44185;47.844;8.966;2023-05-20T08:00:15;96007.50;;;12.74;100.00
58385;BME280;44185;47.844;8.966;2023-05-20T08:02:40;96013.47;;;12.58;100.00
58385;BME280;44185;47.844;8.966;2023-05-20T08:05:07;96006.34;;;12.59;100.00
58385;BME280;44185;47.844;8.966;2023-05-20T08:07:32;96007.56;;;12.64;100.00
58385;BME280;44185;47.844;8.966;2023-05-20T08:09:58;95997.63;;;12.66;100.00
58385;BME280;44185;47.844;8.966;2023-05-20T08:12:25;96003.41;;;12.62;100.00
58385;BME280;44185;47.844;8.966;2023-05-20T08:14:50;96000.59;;;12.63;100.00
58385;BME280;44185;47.844;8.966;2023-05-20T08:17:16;96001.00;;;12.68;100.00
58385;BME280;44185;47.844;8.966;2023-05-20T08:19:41;95994.16;;;12.84;100.00
58385;BME280;44185;47.844;8.966;2023-05-20T08:22:06;95997.94;;;13.00;100.00
58385;BME280;44185;47.844;8.966;2023-05-20T08:24:32;95999.88;;;12.98;100.00
58385;BME280;44185;47.844;8.966;2023-05-20T08:26:57;96002.53;;;12.98;100.00
58385;BME280;44185;47.844;8.966;2023-05-20T08:29:24;96002.13;;;12.84;100.00
58385;BME280;44185;47.844;8.966;2023-05-20T08:31:49;95999.22;;;12.77;100.00
58385;BME280;44185;47.844;8.966;2023-05-20T08:34:15;96012.19;;;12.99;100.00
58385;BME280;44185;47.844;8.966;2023-05-20T08:36:40;96012.19;;;12.99;100.00
58385;BME280;44185;47.844;8.966;2023-05-20T08:39:06;96008.41;;;12.83;100.00
58385;BME280;44185;47.844;8.966;2023-05-20T08:41:31;96003.66;;;12.87;100.00
58385;BME280;44185;47.844;8.966;2023-05-20T08:43:58;96008.72;;;12.80;100.00
58385;BME280;44185;47.844;8.966;2023-05-20T08:46:26;96004.31;;;12.89;100.00
58385;BME280;44185;47.844;8.966;2023-05-20T08:48:51;96000.53;;;12.92;100.00
58385;BME280;44185;47.844;8.966;2023-05-20T08:51:19;96000.81;;;12.88;100.00
58385;BME280;44185;47.844;8.966;2023-05-20T08:53:45;96004.28;;;13.07;100.00
58385;BME280;44185;47.844;8.966;2023-05-20T08:56:11;96007.03;;;13.16;100.00
58385;BME280;44185;47.844;8.966;2023-05-20T08:58:37;95997.13;;;13.26;100.00
58385;BME280;44185;47.844;8.966;2023-05-20T09:01:02;95999.06;;;13.42;99.74
58385;BME280;44185;47.844;8.966;2023-05-20T09:03:29;95999.50;;;13.56;100.00
58385;BME280;44185;47.844;8.966;2023-05-20T09:06:02;95997.63;;;13.56;98.50
58385;BME280;44185;47.844;8.966;2023-05-20T09:08:29;95996.81;;;13.56;97.67
58385;BME280;44185;47.844;8.966;2023-05-20T09:10:55;95990.97;;;13.52;98.83
58385;BME280;44185;47.844;8.966;2023-05-20T09:13:20;96002.94;;;13.56;98.51
58385;BME280;44185;47.844;8.966;2023-05-20T09:15:46;95996.47;;;13.51;99.04
58385;BME280;44185;47.844;8.966;2023-05-20T09:18:11;95999.34;;;13.57;98.98
58385;BME280;44185;47.844;8.966;2023-05-20T09:20:38;95999.03;;;13.61;98.93
58385;BME280;44185;47.844;8.966;2023-05-20T09:23:06;95998.59;;;13.47;98.46
58385;BME280;44185;47.844;8.966;2023-05-20T09:25:32;96001.09;;;13.49;98.23
58385;BME280;44185;47.844;8.966;2023-05-20T09:27:57;96008.59;;;13.53;97.26
58385;BME280;44185;47.844;8.966;2023-05-20T09:30:23;96008.22;;;13.66;98.26
58385;BME280;44185;47.844;8.966;2023-05-20T09:32:52;96003.28;;;13.53;99.57
58385;BME280;44185;47.844;8.966;2023-05-20T09:35:18;96003.81;;;13.57;98.43
58385;BME280;44185;47.844;8.966;2023-05-20T09:37:46;96003.03;;;13.65;98.91
58385;BME280;44185;47.844;8.966;2023-05-20T09:40:12;96002.56;;;13.70;97.30
58385;BME280;44185;47.844;8.966;2023-05-20T09:42:42;96004.78;;;13.74;95.93
58385;BME280;44185;47.844;8.966;2023-05-20T09:45:08;96002.91;;;13.75;95.80
58385;BME280;44185;47.844;8.966;2023-05-20T09:47:36;95995.47;;;13.78;97.18
58385;BME280;44185;47.844;8.966;2023-05-20T09:50:02;96000.66;;;13.88;98.17
58385;BME280;44185;47.844;8.966;2023-05-20T09:52:28;96001.41;;;13.72;95.13
58385;BME280;44185;47.844;8.966;2023-05-20T09:54:56;95992.66;;;13.80;95.64
58385;BME280;44185;47.844;8.966;2023-05-20T09:57:23;95990.75;;;14.07;93.73
58385;BME280;44185;47.844;8.966;2023-05-20T09:59:49;95987.63;;;14.12;92.24
58385;BME280;44185;47.844;8.966;2023-05-20T10:02:16;95993.78;;;14.12;92.90
58385;BME280;44185;47.844;8.966;2023-05-20T10:04:45;95982.81;;;14.16;92.69
58385;BME280;44185;47.844;8.966;2023-05-20T10:07:31;95987.31;;;14.23;93.13
58385;BME280;44185;47.844;8.966;2023-05-20T10:10:13;95983.00;;;14.31;91.43
58385;BME280;44185;47.844;8.966;2023-05-20T10:12:49;95976.19;;;14.28;92.40
58385;BME280;44185;47.844;8.966;2023-05-20T10:15:22;95983.31;;;14.11;90.25
58385;BME280;44185;47.844;8.966;2023-05-20T10:17:53;95980.28;;;14.06;90.33
58385;BME280;44185;47.844;8.966;2023-05-20T10:20:23;95978.25;;;13.99;91.69
58385;BME280;44185;47.844;8.966;2023-05-20T10:22:54;95984.78;;;14.05;91.92
58385;BME280;44185;47.844;8.966;2023-05-20T10:25:25;95980.56;;;13.94;92.60
58385;BME280;44185;47.844;8.966;2023-05-20T10:27:51;95975.44;;;13.93;90.23
58385;BME280;44185;47.844;8.966;2023-05-20T10:30:17;95984.59;;;14.07;90.18
58385;BME280;44185;47.844;8.966;2023-05-20T10:32:52;95989.00;;;14.25;89.61
58385;BME280;44185;47.844;8.966;2023-05-20T10:35:21;95992.31;;;14.18;89.61
58385;BME280;44185;47.844;8.966;2023-05-20T10:37:46;95992.44;;;14.08;90.20
58385;BME280;44185;47.844;8.966;2023-05-20T10:40:14;95981.25;;;13.96;90.52
58385;BME280;44185;47.844;8.966;2023-05-20T10:42:41;95978.75;;;13.95;89.25
58385;BME280;44185;47.844;8.966;2023-05-20T10:45:08;95972.44;;;13.96;90.48
58385;BME280;44185;47.844;8.966;2023-05-20T10:47:34;95969.13;;;14.02;91.09
58385;BME280;44185;47.844;8.966;2023-05-20T10:49:59;95972.03;;;14.26;90.18
58385;BME280;44185;47.844;8.966;2023-05-20T10:52:25;95967.06;;;14.39;88.90
58385;BME280;44185;47.844;8.966;2023-05-20T10:54:54;95966.78;;;14.59;86.70
58385;BME280;44185;47.844;8.966;2023-05-20T10:57:20;95966.16;;;14.90;87.39
58385;BME280;44185;47.844;8.966;2023-05-20T10:59:48;95980.16;;;15.01;84.46
58385;BME280;44185;47.844;8.966;2023-05-20T11:02:15;95980.16;;;14.93;84.40
58385;BME280;44185;47.844;8.966;2023-05-20T11:04:42;95963.97;;;15.36;85.19
58385;BME280;44185;47.844;8.966;2023-05-20T11:07:07;95958.72;;;15.68;82.41
58385;BME280;44185;47.844;8.966;2023-05-20T11:09:33;95953.78;;;16.05;79.40
58385;BME280;44185;47.844;8.966;2023-05-20T11:11:58;95963.91;;;15.53;79.40
58385;BME280;44185;47.844;8.966;2023-05-20T11:14:26;95959.78;;;15.42;82.66
58385;BME280;44185;47.844;8.966;2023-05-20T11:16:55;95954.72;;;15.64;81.53
58385;BME280;44185;47.844;8.966;2023-05-20T11:19:21;95957.34;;;15.81;80.73
58385;BME280;44185;47.844;8.966;2023-05-20T11:21:47;95954.16;;;15.77;79.16
58385;BME280;44185;47.844;8.966;2023-05-20T11:24:13;95958.22;;;15.64;80.08
58385;BME280;44185;47.844;8.966;2023-05-20T11:26:39;95952.38;;;15.69;78.83
58385;BME280;44185;47.844;8.966;2023-05-20T11:29:05;95948.97;;;15.92;78.71
58385;BME280;44185;47.844;8.966;2023-05-20T11:31:31;95951.56;;;16.09;78.73
58385;BME280;44185;47.844;8.966;2023-05-20T11:33:59;95948.25;;;15.98;75.87
58385;BME280;44185;47.844;8.966;2023-05-20T11:36:24;95946.53;;;16.14;79.23
58385;BME280;44185;47.844;8.966;2023-05-20T11:38:50;95940.16;;;16.23;77.44
58385;BME280;44185;47.844;8.966;2023-05-20T11:41:15;95923.03;;;16.09;75.48
58385;BME280;44185;47.844;8.966;2023-05-20T11:43:41;95921.69;;;16.14;76.95
58385;BME280;44185;47.844;8.966;2023-05-20T11:46:06;95921.22;;;16.01;79.07
58385;BME280;44185;47.844;8.966;2023-05-20T11:48:32;95922.88;;;16.11;76.91
58385;BME280;44185;47.844;8.966;2023-05-20T11:50:59;95934.53;;;16.18;78.21
58385;BME280;44185;47.844;8.966;2023-05-20T11:53:24;95928.31;;;16.50;76.55
58385;BME280;44185;47.844;8.966;2023-05-20T11:55:51;95948.53;;;16.44;76.93
58385;BME280;44185;47.844;8.966;2023-05-20T11:58:18;95945.69;;;16.45;78.90
58385;BME280;44185;47.844;8.966;2023-05-20T12:00:44;95941.38;;;16.44;75.67
58385;BME280;44185;47.844;8.966;2023-05-20T12:03:09;95939.69;;;16.67;75.87
58385;BME280;44185;47.844;8.966;2023-05-20T12:05:35;95934.63;;;16.25;75.55
58385;BME280;44185;47.844;8.966;2023-05-20T12:08:02;95931.56;;;16.37;76.31
58385;BME280;44185;47.844;8.966;2023-05-20T12:10:27;95933.28;;;16.76;75.71
58385;BME280;44185;47.844;8.966;2023-05-20T12:12:52;95925.69;;;16.65;76.44
58385;BME280;44185;47.844;8.966;2023-05-20T12:15:18;95922.66;;;16.68;74.74
58385;BME280;44185;47.844;8.966;2023-05-20T12:17:45;95921.47;;;17.09;76.00
58385;BME280;44185;47.844;8.966;2023-05-20T12:20:12;95923.50;;;17.46;72.92
58385;BME280;44185;47.844;8.966;2023-05-20T12:22:38;95914.16;;;17.87;74.01
58385;BME280;44185;47.844;8.966;2023-05-20T12:25:05;95912.66;;;18.00;71.01
58385;BME280;44185;47.844;8.966;2023-05-20T12:27:30;95900.66;;;17.96;69.47
58385;BME280;44185;47.844;8.966;2023-05-20T12:29:56;95901.44;;;18.27;71.22
58385;BME280;44185;47.844;8.966;2023-05-20T12:32:21;95894.22;;;17.90;68.99
58385;BME280;44185;47.844;8.966;2023-05-20T12:34:47;95896.56;;;17.48;71.24
58385;BME280;44185;47.844;8.966;2023-05-20T12:37:12;95908.38;;;17.53;69.87
58385;BME280;44185;47.844;8.966;2023-05-20T12:39:37;95893.75;;;17.86;69.61
58385;BME280;44185;47.844;8.966;2023-05-20T12:42:04;95905.34;;;18.09;68.83
58385;BME280;44185;47.844;8.966;2023-05-20T12:44:30;95898.00;;;17.96;70.11
58385;BME280;44185;47.844;8.966;2023-05-20T12:46:55;95896.91;;;17.75;69.06
58385;BME280;44185;47.844;8.966;2023-05-20T12:49:21;95891.91;;;17.87;69.67